sensor_id;sensor_type;location;lat;lon;timestamp;pressure;altitude;pressure_sealevel;temperature;humidity
5691;BME280;2870;42.680;23.364;2023-04-29T00:00:07;95138.47;;;8.99;59.03
5691;BME280;2870;42.680;23.364;2023-04-29T00:02:35;95162.31;;;8.92;59.59
5691;BME280;2870;42.680;23.364;2023-04-29T00:05:02;95158.81;;;8.99;59.64
5691;BME280;2870;42.680;23.364;2023-04-29T00:07:29;95148.69;;;8.68;58.96
5691;BME280;2870;42.680;23.364;2023-04-29T00:09:56;95151.22;;;8.58;59.91
5691;BME280;2870;42.680;23.364;2023-04-29T00:12:23;95155.66;;;8.54;60.57
5691;BME280;2870;42.680;23.364;2023-04-29T00:14:51;95157.97;;;8.42;61.62
5691;BME280;2870;42.680;23.364;2023-04-29T00:17:18;95158.16;;;8.44;61.21
5691;BME280;2870;42.680;23.364;2023-04-29T00:19:45;95165.41;;;8.26;62.14
5691;BME280;2870;42.680;23.364;2023-04-29T00:22:12;95164.00;;;8.33;64.07
5691;BME280;2870;42.680;23.364;2023-04-29T00:24:39;95162.69;;;8.13;62.50
5691;BME280;2870;42.680;23.364;2023-04-29T00:27:05;95162.19;;;8.22;63.92
5691;BME280;2870;42.680;23.364;2023-04-29T00:29:32;95166.09;;;8.19;64.19
5691;BME280;2870;42.680;23.364;2023-04-29T00:32:00;95167.09;;;8.08;64.54
5691;BME280;2870;42.680;23.364;2023-04-29T00:34:27;95171.25;;;8.15;64.92
5691;BME280;2870;42.680;23.364;2023-04-29T00:36:54;95166.44;;;8.15;67.11
5691;BME280;2870;42.680;23.364;2023-04-29T00:39:21;95166.28;;;8.21;66.14
5691;BME280;2870;42.680;23.364;2023-04-29T00:41:48;95168.91;;;8.19;66.06
5691;BME280;2870;42.680;23.364;2023-04-29T00:44:15;95164.09;;;8.06;66.88
5691;BME280;2870;42.680;23.364;2023-04-29T00:46:41;95132.03;;;7.86;67.38
5691;BME280;2870;42.680;23.364;2023-04-29T00:49:11;95157.34;;;8.02;67.14
5691;BME280;2870;42.680;23.364;2023-04-29T00:51:40;95163.50;;;8.21;66.29
5691;BME280;2870;42.680;23.364;2023-04-29T00:54:07;95151.31;;;8.32;66.23
5691;BME280;2870;42.680;23.364;2023-04-29T00:56:36;95148.41;;;8.03;66.93
5691;BME280;2870;42.680;23.364;2023-04-29T00:59:06;95138.91;;;8.19;66.30
5691;BME280;2870;42.680;23.364;2023-04-29T01:01:35;95139.72;;;8.28;66.33
5691;BME280;2870;42.680;23.364;2023-04-29T01:04:03;95126.00;;;8.16;66.78
5691;BME280;2870;42.680;23.364;2023-04-29T01:06:40;95129.72;;;8.11;66.94
5691;BME280;2870;42.680;23.364;2023-04-29T01:09:28;95127.06;;;7.92;68.85
5691;BME280;2870;42.680;23.364;2023-04-29T01:12:07;95121.34;;;7.77;69.18
5691;BME280;2870;42.680;23.364;2023-04-29T01:14:38;95136.28;;;7.66;70.23
5691;BME280;2870;42.680;23.364;2023-04-29T01:17:09;95129.06;;;7.71;70.43
5691;BME280;2870;42.680;23.364;2023-04-29T01:19:43;95130.91;;;7.68;70.37
5691;BME280;2870;42.680;23.364;2023-04-29T01:22:14;95125.00;;;7.72;70.69
5691;BME280;2870;42.680;23.364;2023-04-29T01:24:43;95126.44;;;7.86;68.58
5691;BME280;2870;42.680;23.364;2023-04-29T01:27:19;95118.13;;;7.73;70.72
5691;BME280;2870;42.680;23.364;2023-04-29T01:29:53;95121.34;;;7.77;72.46
5691;BME280;2870;42.680;23.364;2023-04-29T01:32:27;95123.41;;;7.97;71.28
5691;BME280;2870;42.680;23.364;2023-04-29T01:34:59;95114.16;;;8.03;70.74
5691;BME280;2870;42.680;23.364;2023-04-29T01:37:34;95119.75;;;7.68;73.01
5691;BME280;2870;42.680;23.364;2023-04-29T01:40:09;95130.63;;;7.46;73.29
5691;BME280;2870;42.680;23.364;2023-04-29T01:42:43;95119.25;;;7.30;73.43
5691;BME280;2870;42.680;23.364;2023-04-29T01:45:11;95110.69;;;7.28;74.97
5691;BME280;2870;42.680;23.364;2023-04-29T01:47:40;95113.47;;;7.28;75.64
5691;BME280;2870;42.680;23.364;2023-04-29T01:50:08;95112.00;;;7.27;75.89
5691;BME280;2870;42.680;23.364;2023-04-29T01:52:35;95115.19;;;7.18;74.99
5691;BME280;2870;42.680;23.364;2023-04-29T01:55:03;95116.94;;;7.21;75.61
5691;BME280;2870;42.680;23.364;2023-04-29T01:57:31;95107.94;;;7.15;76.04
5691;BME280;2870;42.680;23.364;2023-04-29T01:59:58;95115.69;;;7.43;73.34
5691;BME280;2870;42.680;23.364;2023-04-29T02:02:26;95117.25;;;7.17;74.53
5691;BME280;2870;42.680;23.364;2023-04-29T02:04:53;95112.94;;;7.30;74.52
5691;BME280;2870;42.680;23.364;2023-04-29T02:07:20;95117.16;;;7.10;74.37
5691;BME280;2870;42.680;23.364;2023-04-29T02:09:47;95121.41;;;6.98;74.17
5691;BME280;2870;42.680;23.364;2023-04-29T02:12:13;95119.28;;;6.90;76.79
5691;BME280;2870;42.680;23.364;2023-04-29T02:14:42;95115.00;;;6.76;77.38
5691;BME280;2870;42.680;23.364;2023-04-29T02:17:08;95120.97;;;6.67;78.25
5691;BME280;2870;42.680;23.364;2023-04-29T02:19:35;95115.41;;;6.67;78.25
5691;BME280;2870;42.680;23.364;2023-04-29T02:22:02;95119.19;;;6.70;77.98
5691;BME280;2870;42.680;23.364;2023-04-29T02:24:29;95120.13;;;6.59;79.07
5691;BME280;2870;42.680;23.364;2023-04-29T02:26:55;95120.13;;;6.59;78.56
5691;BME280;2870;42.680;23.364;2023-04-29T02:29:23;95113.03;;;6.58;78.63
5691;BME280;2870;42.680;23.364;2023-04-29T02:31:52;95108.78;;;6.70;78.07
5691;BME280;2870;42.680;23.364;2023-04-29T02:34:19;95122.28;;;6.66;77.53
5691;BME280;2870;42.680;23.364;2023-04-29T02:36:46;95116.78;;;6.60;77.78
5691;BME280;2870;42.680;23.364;2023-04-29T02:39:12;95115.41;;;6.54;78.44
5691;BME280;2870;42.680;23.364;2023-04-29T02:41:39;95112.38;;;6.52;78.38
5691;BME280;2870;42.680;23.364;2023-04-29T02:44:06;95118.19;;;6.67;77.06
5691;BME280;2870;42.680;23.364;2023-04-29T02:46:33;95118.50;;;6.50;77.08
5691;BME280;2870;42.680;23.364;2023-04-29T02:49:02;95118.59;;;6.45;76.94
5691;BME280;2870;42.680;23.364;2023-04-29T02:51:29;95120.72;;;6.38;77.87
5691;BME280;2870;42.680;23.364;2023-04-29T02:53:56;95121.09;;;6.29;77.75
5691;BME280;2870;42.680;23.364;2023-04-29T02:56:23;95121.97;;;6.24;77.88
5691;BME280;2870;42.680;23.364;2023-04-29T02:58:50;95122.81;;;6.19;78.86
5691;BME280;2870;42.680;23.364;2023-04-29T03:01:16;95135.84;;;6.11;78.08
5691;BME280;2870;42.680;23.364;2023-04-29T03:03:43;95146.81;;;6.22;79.50
5691;BME280;2870;42.680;23.364;2023-04-29T03:06:12;95147.03;;;6.24;79.87
5691;BME280;2870;42.680;23.364;2023-04-29T03:08:40;95149.38;;;6.20;77.92
5691;BME280;2870;42.680;23.364;2023-04-29T03:11:07;95134.25;;;6.16;78.54
5691;BME280;2870;42.680;23.364;2023-04-29T03:13:34;95133.41;;;6.21;78.75
5691;BME280;2870;42.680;23.364;2023-04-29T03:16:01;95134.56;;;6.12;78.79
5691;BME280;2870;42.680;23.364;2023-04-29T03:18:28;95136.94;;;6.21;78.44
5691;BME280;2870;42.680;23.364;2023-04-29T03:20:54;95123.56;;;6.20;78.99
5691;BME280;2870;42.680;23.364;2023-04-29T03:23:23;95143.81;;;6.20;78.82
5691;BME280;2870;42.680;23.364;2023-04-29T03:25:51;95143.34;;;6.16;79.52
5691;BME280;2870;42.680;23.364;2023-04-29T03:28:20;95152.63;;;6.24;79.47
5691;BME280;2870;42.680;23.364;2023-04-29T03:30:46;95149.84;;;6.24;78.44
5691;BME280;2870;42.680;23.364;2023-04-29T03:33:13;95154.78;;;6.31;78.46
5691;BME280;2870;42.680;23.364;2023-04-29T03:35:40;95165.69;;;6.29;79.42
5691;BME280;2870;42.680;23.364;2023-04-29T03:38:07;95174.66;;;6.22;79.85
5691;BME280;2870;42.680;23.364;2023-04-29T03:40:35;95167.59;;;6.21;80.60
5691;BME280;2870;42.680;23.364;2023-04-29T03:43:02;95175.41;;;6.23;79.99
5691;BME280;2870;42.680;23.364;2023-04-29T03:45:29;95176.47;;;6.20;80.12
5691;BME280;2870;42.680;23.364;2023-04-29T03:47:56;95175.31;;;6.28;78.98
5691;BME280;2870;42.680;23.364;2023-04-29T03:50:23;95175.38;;;6.42;78.04
5691;BME280;2870;42.680;23.364;2023-04-29T03:52:50;95174.72;;;6.35;77.86
5691;BME280;2870;42.680;23.364;2023-04-29T03:55:17;95168.91;;;6.33;78.68
5691;BME280;2870;42.680;23.364;2023-04-29T03:57:45;95167.03;;;6.42;78.59
5691;BME280;2870;42.680;23.364;2023-04-29T04:00:12;95157.06;;;6.46;76.95
5691;BME280;2870;42.680;23.364;2023-04-29T04:02:39;95152.91;;;6.53;76.55
5691;BME280;2870;42.680;23.364;2023-04-29T04:05:06;95137.78;;;6.48;76.64
5691;BME280;2870;42.680;23.364;2023-04-29T04:07:35;95158.28;;;6.64;76.23
5691;BME280;2870;42.680;23.364;2023-04-29T04:10:01;95160.66;;;6.73;76.09
5691;BME280;2870;42.680;23.364;2023-04-29T04:12:28;95174.19;;;6.82;76.36
5691;BME280;2870;42.680;23.364;2023-04-29T04:14:56;95176.53;;;6.65;76.73
5691;BME280;2870;42.680;23.364;2023-04-29T04:17:23;95161.03;;;6.51;76.96
5691;BME280;2870;42.680;23.364;2023-04-29T04:19:50;95176.94;;;6.69;75.04
5691;BME280;2870;42.680;23.364;2023-04-29T04:22:17;95173.66;;;6.84;76.30
5691;BME280;2870;42.680;23.364;2023-04-29T04:24:44;95179.66;;;6.88;74.96
5691;BME280;2870;42.680;23.364;2023-04-29T04:27:11;95171.84;;;7.00;77.08
5691;BME280;2870;42.680;23.364;2023-04-29T04:29:38;95170.25;;;7.17;76.75
5691;BME280;2870;42.680;23.364;2023-04-29T04:32:07;95166.81;;;7.38;75.90
5691;BME280;2870;42.680;23.364;2023-04-29T04:34:33;95171.59;;;7.64;74.06
5691;BME280;2870;42.680;23.364;2023-04-29T04:37:00;95162.16;;;7.67;72.10
5691;BME280;2870;42.680;23.364;2023-04-29T04:39:27;95164.41;;;7.68;71.96
5691;BME280;2870;42.680;23.364;2023-04-29T04:41:54;95169.47;;;7.57;73.82
5691;BME280;2870;42.680;23.364;2023-04-29T04:44:20;95167.47;;;7.44;74.20
5691;BME280;2870;42.680;23.364;2023-04-29T04:46:47;95176.16;;;7.40;73.33
5691;BME280;2870;42.680;23.364;2023-04-29T04:49:16;95180.00;;;7.51;73.89
5691;BME280;2870;42.680;23.364;2023-04-29T04:51:43;95190.31;;;7.56;72.74
5691;BME280;2870;42.680;23.364;2023-04-29T04:54:10;95184.72;;;7.56;74.26
5691;BME280;2870;42.680;23.364;2023-04-29T04:56:37;95178.25;;;7.74;72.62
5691;BME280;2870;42.680;23.364;2023-04-29T04:59:04;95180.41;;;7.68;71.61
5691;BME280;2870;42.680;23.364;2023-04-29T05:01:30;95174.84;;;7.55;72.37
5691;BME280;2870;42.680;23.364;2023-04-29T05:03:57;95173.66;;;7.63;71.76
5691;BME280;2870;42.680;23.364;2023-04-29T05:06:26;95164.13;;;7.46;71.96
5691;BME280;2870;42.680;23.364;2023-04-29T05:08:53;95157.88;;;7.53;71.45
5691;BME280;2870;42.680;23.364;2023-04-29T05:11:20;95161.84;;;7.57;72.93
5691;BME280;2870;42.680;23.364;2023-04-29T05:13:47;95162.75;;;8.20;69.85
5691;BME280;2870;42.680;23.364;2023-04-29T05:16:14;95158.38;;;8.46;68.62
5691;BME280;2870;42.680;23.364;2023-04-29T05:18:42;95157.63;;;8.66;68.55
5691;BME280;2870;42.680;23.364;2023-04-29T05:21:10;95150.59;;;8.73;67.70
5691;BME280;2870;42.680;23.364;2023-04-29T05:23:38;95142.31;;;8.88;66.37
5691;BME280;2870;42.680;23.364;2023-04-29T05:26:04;95152.34;;;8.84;65.85
5691;BME280;2870;42.680;23.364;2023-04-29T05:28:31;95144.38;;;8.67;66.70
5691;BME280;2870;42.680;23.364;2023-04-29T05:30:58;95140.88;;;8.32;68.69
5691;BME280;2870;42.680;23.364;2023-04-29T05:33:25;95137.66;;;8.41;69.32
5691;BME280;2870;42.680;23.364;2023-04-29T05:35:52;95144.41;;;8.95;65.36
5691;BME280;2870;42.680;23.364;2023-04-29T05:38:18;95149.84;;;8.72;65.82
5691;BME280;2870;42.680;23.364;2023-04-29T05:40:47;95150.81;;;8.54;67.64
5691;BME280;2870;42.680;23.364;2023-04-29T05:43:14;95135.56;;;8.84;67.72
5691;BME280;2870;42.680;23.364;2023-04-29T05:45:41;95143.47;;;9.21;66.35
5691;BME280;2870;42.680;23.364;2023-04-29T05:48:07;95141.88;;;9.05;66.45
5691;BME280;2870;42.680;23.364;2023-04-29T05:50:34;95132.25;;;9.50;64.59
5691;BME280;2870;42.680;23.364;2023-04-29T05:53:01;95131.44;;;9.78;64.34
5691;BME280;2870;42.680;23.364;2023-04-29T05:55:29;95142.56;;;9.63;63.14
5691;BME280;2870;42.680;23.364;2023-04-29T05:57:57;95148.56;;;9.67;64.31
5691;BME280;2870;42.680;23.364;2023-04-29T06:00:24;95148.25;;;9.78;63.50
5691;BME280;2870;42.680;23.364;2023-04-29T06:02:51;95151.72;;;9.27;63.43
5691;BME280;2870;42.680;23.364;2023-04-29T06:05:17;95140.34;;;8.96;65.30
5691;BME280;2870;42.680;23.364;2023-04-29T06:07:44;95150.56;;;9.59;63.63
5691;BME280;2870;42.680;23.364;2023-04-29T06:10:11;95151.72;;;10.15;61.59
5691;BME280;2870;42.680;23.364;2023-04-29T06:12:40;95143.19;;;10.28;60.91
5691;BME280;2870;42.680;23.364;2023-04-29T06:15:09;95132.31;;;10.17;60.38
5691;BME280;2870;42.680;23.364;2023-04-29T06:17:36;95134.06;;;10.66;60.12
5691;BME280;2870;42.680;23.364;2023-04-29T06:20:03;95144.34;;;10.63;58.69
5691;BME280;2870;42.680;23.364;2023-04-29T06:22:30;95140.47;;;9.99;59.56
5691;BME280;2870;42.680;23.364;2023-04-29T06:24:56;95143.69;;;10.19;62.55
5691;BME280;2870;42.680;23.364;2023-04-29T06:27:23;95155.22;;;10.82;60.05
5691;BME280;2870;42.680;23.364;2023-04-29T06:29:50;95151.47;;;10.95;58.10
5691;BME280;2870;42.680;23.364;2023-04-29T06:32:18;95153.69;;;10.88;57.70
5691;BME280;2870;42.680;23.364;2023-04-29T06:34:45;95155.56;;;11.17;57.28
5691;BME280;2870;42.680;23.364;2023-04-29T06:37:12;95153.59;;;11.65;56.17
5691;BME280;2870;42.680;23.364;2023-04-29T06:39:38;95147.56;;;10.90;57.82
5691;BME280;2870;42.680;23.364;2023-04-29T06:42:05;95146.19;;;11.22;58.01
5691;BME280;2870;42.680;23.364;2023-04-29T06:44:32;95143.94;;;11.28;57.38
5691;BME280;2870;42.680;23.364;2023-04-29T06:46:59;95143.53;;;11.47;58.02
5691;BME280;2870;42.680;23.364;2023-04-29T06:49:27;95147.97;;;11.65;57.26
5691;BME280;2870;42.680;23.364;2023-04-29T06:51:54;95143.97;;;11.91;57.04
5691;BME280;2870;42.680;23.364;2023-04-29T06:54:20;95151.22;;;12.09;55.47
5691;BME280;2870;42.680;23.364;2023-04-29T06:56:47;95124.50;;;11.78;55.63
5691;BME280;2870;42.680;23.364;2023-04-29T06:59:14;95147.22;;;11.64;56.14
5691;BME280;2870;42.680;23.364;2023-04-29T07:01:41;95134.56;;;11.33;58.07
5691;BME280;2870;42.680;23.364;2023-04-29T07:04:07;95147.63;;;11.53;57.77
5691;BME280;2870;42.680;23.364;2023-04-29T07:06:36;95134.91;;;11.52;58.19
5691;BME280;2870;42.680;23.364;2023-04-29T07:09:02;95140.41;;;11.90;57.91
5691;BME280;2870;42.680;23.364;2023-04-29T07:11:29;95137.44;;;11.88;57.92
5691;BME280;2870;42.680;23.364;2023-04-29T07:13:56;95124.63;;;11.47;58.42
5691;BME280;2870;42.680;23.364;2023-04-29T07:16:23;95129.47;;;12.10;58.47
5691;BME280;2870;42.680;23.364;2023-04-29T07:18:51;95128.66;;;12.17;56.41
5691;BME280;2870;42.680;23.364;2023-04-29T07:21:18;95120.88;;;12.00;58.77
5691;BME280;2870;42.680;23.364;2023-04-29T07:23:46;95130.13;;;12.26;56.94
5691;BME280;2870;42.680;23.364;2023-04-29T07:26:14;95134.00;;;12.38;58.13
5691;BME280;2870;42.680;23.364;2023-04-29T07:28:42;95132.13;;;12.65;58.13
5691;BME280;2870;42.680;23.364;2023-04-29T07:31:10;95135.31;;;13.12;53.89
5691;BME280;2870;42.680;23.364;2023-04-29T07:33:37;95134.94;;;13.33;53.59
5691;BME280;2870;42.680;23.364;2023-04-29T07:36:04;95138.34;;;13.31;53.70
5691;BME280;2870;42.680;23.364;2023-04-29T07:38:31;95131.47;;;13.76;52.22
5691;BME280;2870;42.680;23.364;2023-04-29T07:40:59;95132.53;;;14.70;49.65
5691;BME280;2870;42.680;23.364;2023-04-29T07:43:27;95140.31;;;14.89;48.17
5691;BME280;2870;42.680;23.364;2023-04-29T07:45:54;95143.97;;;15.18;47.65
5691;BME280;2870;42.680;23.364;2023-04-29T07:48:21;95139.53;;;14.78;48.78
5691;BME280;2870;42.680;23.364;2023-04-29T07:50:47;95132.63;;;15.74;46.85
5691;BME280;2870;42.680;23.364;2023-04-29T07:53:15;95114.19;;;15.73;43.90
5691;BME280;2870;42.680;23.364;2023-04-29T07:55:42;95122.28;;;16.47;43.06
5691;BME280;2870;42.680;23.364;2023-04-29T07:58:10;95126.41;;;16.55;42.83
5691;BME280;2870;42.680;23.364;2023-04-29T08:00:37;95129.28;;;17.27;42.06
5691;BME280;2870;42.680;23.364;2023-04-29T08:03:04;95130.19;;;17.94;41.48
5691;BME280;2870;42.680;23.364;2023-04-29T08:05:31;95126.53;;;18.03;41.94
5691;BME280;2870;42.680;23.364;2023-04-29T08:07:57;95120.38;;;18.07;41.18
5691;BME280;2870;42.680;23.364;2023-04-29T08:10:24;95122.69;;;18.88;38.93
5691;BME280;2870;42.680;23.364;2023-04-29T08:12:51;95122.84;;;19.14;39.24
5691;BME280;2870;42.680;23.364;2023-04-29T08:15:19;95120.09;;;19.27;39.86
5691;BME280;2870;42.680;23.364;2023-04-29T08:17:46;95116.66;;;19.29;36.31
5691;BME280;2870;42.680;23.364;2023-04-29T08:20:13;95122.44;;;19.31;35.77
5691;BME280;2870;42.680;23.364;2023-04-29T08:22:40;95113.38;;;17.86;38.17
5691;BME280;2870;42.680;23.364;2023-04-29T08:25:08;95108.75;;;18.02;38.23
5691;BME280;2870;42.680;23.364;2023-04-29T08:27:35;95106.31;;;18.09;39.31
5691;BME280;2870;42.680;23.364;2023-04-29T08:30:02;95107.22;;;17.47;40.07
5691;BME280;2870;42.680;23.364;2023-04-29T08:32:30;95104.38;;;17.26;40.13
5691;BME280;2870;42.680;23.364;2023-04-29T08:34:58;95110.06;;;17.68;40.89
5691;BME280;2870;42.680;23.364;2023-04-29T08:37:26;95102.41;;;19.17;34.10
5691;BME280;2870;42.680;23.364;2023-04-29T08:39:52;95113.13;;;19.66;35.45
5691;BME280;2870;42.680;23.364;2023-04-29T08:42:31;95107.84;;;19.97;34.06
5691;BME280;2870;42.680;23.364;2023-04-29T08:44:59;95106.28;;;20.20;32.89
5691;BME280;2870;42.680;23.364;2023-04-29T08:47:28;95095.88;;;18.91;35.11
5691;BME280;2870;42.680;23.364;2023-04-29T08:50:01;95095.53;;;18.40;34.91
5691;BME280;2870;42.680;23.364;2023-04-29T08:52:28;95087.69;;;17.41;36.82
5691;BME280;2870;42.680;23.364;2023-04-29T08:54:56;95092.38;;;19.28;34.70
5691;BME280;2870;42.680;23.364;2023-04-29T08:57:25;95092.34;;;19.75;34.35
5691;BME280;2870;42.680;23.364;2023-04-29T08:59:52;95084.78;;;19.68;34.11
5691;BME280;2870;42.680;23.364;2023-04-29T09:02:19;95080.16;;;20.62;33.65
5691;BME280;2870;42.680;23.364;2023-04-29T09:04:52;95078.66;;;19.85;35.43
5691;BME280;2870;42.680;23.364;2023-04-29T09:07:22;95074.88;;;20.06;33.57
5691;BME280;2870;42.680;23.364;2023-04-29T09:09:50;95082.59;;;20.03;33.86
5691;BME280;2870;42.680;23.364;2023-04-29T09:12:18;95070.41;;;19.17;34.02
5691;BME280;2870;42.680;23.364;2023-04-29T09:14:46;95073.19;;;20.26;34.64
5691;BME280;2870;42.680;23.364;2023-04-29T09:17:13;95073.75;;;19.74;32.87
5691;BME280;2870;42.680;23.364;2023-04-29T09:19:41;95075.47;;;19.79;35.44
5691;BME280;2870;42.680;23.364;2023-04-29T09:22:09;95065.56;;;21.09;30.97
5691;BME280;2870;42.680;23.364;2023-04-29T09:24:37;95063.78;;;20.24;32.54
5691;BME280;2870;42.680;23.364;2023-04-29T09:27:04;95055.28;;;20.12;32.54
5691;BME280;2870;42.680;23.364;2023-04-29T09:29:31;95067.41;;;20.38;33.34
5691;BME280;2870;42.680;23.364;2023-04-29T09:31:59;95058.78;;;20.10;33.81
5691;BME280;2870;42.680;23.364;2023-04-29T09:34:33;95046.22;;;20.41;32.18
5691;BME280;2870;42.680;23.364;2023-04-29T09:37:02;95049.03;;;18.92;33.21
5691;BME280;2870;42.680;23.364;2023-04-29T09:39:38;95042.44;;;18.54;33.88
5691;BME280;2870;42.680;23.364;2023-04-29T09:42:05;95040.88;;;18.98;34.83
5691;BME280;2870;42.680;23.364;2023-04-29T09:44:34;95036.44;;;19.07;36.15
5691;BME280;2870;42.680;23.364;2023-04-29T09:47:03;95031.66;;;19.84;34.04
5691;BME280;2870;42.680;23.364;2023-04-29T09:49:31;95035.94;;;20.36;32.72
5691;BME280;2870;42.680;23.364;2023-04-29T09:52:01;95033.44;;;19.17;33.33
5691;BME280;2870;42.680;23.364;2023-04-29T09:54:30;95039.16;;;19.66;34.79
5691;BME280;2870;42.680;23.364;2023-04-29T09:57:00;95029.59;;;20.24;32.66
5691;BME280;2870;42.680;23.364;2023-04-29T09:59:31;95026.03;;;20.62;32.07
5691;BME280;2870;42.680;23.364;2023-04-29T10:02:00;95024.84;;;19.52;32.62
5691;BME280;2870;42.680;23.364;2023-04-29T10:04:29;95014.66;;;19.23;33.25
5691;BME280;2870;42.680;23.364;2023-04-29T10:06:57;95011.97;;;19.88;32.82
5691;BME280;2870;42.680;23.364;2023-04-29T10:09:26;95013.88;;;20.23;31.28
5691;BME280;2870;42.680;23.364;2023-04-29T10:11:53;95001.25;;;20.39;32.34
5691;BME280;2870;42.680;23.364;2023-04-29T10:14:23;94998.06;;;20.20;34.01
5691;BME280;2870;42.680;23.364;2023-04-29T10:16:58;95004.31;;;19.79;30.88
5691;BME280;2870;42.680;23.364;2023-04-29T10:19:26;94987.13;;;18.32;33.55
5691;BME280;2870;42.680;23.364;2023-04-29T10:22:04;94999.91;;;19.27;34.11
5691;BME280;2870;42.680;23.364;2023-04-29T10:24:34;94989.34;;;19.04;32.71
5691;BME280;2870;42.680;23.364;2023-04-29T10:27:06;94986.16;;;18.63;33.30
5691;BME280;2870;42.680;23.364;2023-04-29T10:29:35;94991.31;;;19.13;34.83
5691;BME280;2870;42.680;23.364;2023-04-29T10:32:06;94979.09;;;19.48;31.81
5691;BME280;2870;42.680;23.364;2023-04-29T10:34:36;94979.00;;;18.50;33.57
5691;BME280;2870;42.680;23.364;2023-04-29T10:37:03;94979.38;;;19.40;33.58
5691;BME280;2870;42.680;23.364;2023-04-29T10:39:38;94980.75;;;19.90;32.42
5691;BME280;2870;42.680;23.364;2023-04-29T10:42:16;94973.94;;;19.70;31.42
5691;BME280;2870;42.680;23.364;2023-04-29T10:48:11;94978.38;;;19.36;33.25
5691;BME280;2870;42.680;23.364;2023-04-29T10:51:02;94975.25;;;18.00;31.31
5691;BME280;2870;42.680;23.364;2023-04-29T10:53:30;94969.56;;;18.12;33.15
5691;BME280;2870;42.680;23.364;2023-04-29T10:56:07;94975.75;;;19.02;33.17
5691;BME280;2870;42.680;23.364;2023-04-29T10:58:45;94972.06;;;18.65;31.34
5691;BME280;2870;42.680;23.364;2023-04-29T11:01:13;94972.53;;;18.02;32.18
5691;BME280;2870;42.680;23.364;2023-04-29T11:03:53;94970.47;;;17.70;31.20
5691;BME280;2870;42.680;23.364;2023-04-29T11:06:23;94957.59;;;18.14;33.00
5691;BME280;2870;42.680;23.364;2023-04-29T11:09:01;94964.53;;;18.11;33.64
5691;BME280;2870;42.680;23.364;2023-04-29T11:11:41;94970.41;;;19.09;32.35
5691;BME280;2870;42.680;23.364;2023-04-29T11:14:09;94955.66;;;18.40;31.96
5691;BME280;2870;42.680;23.364;2023-04-29T11:16:36;94956.13;;;18.36;34.19
5691;BME280;2870;42.680;23.364;2023-04-29T11:19:06;94953.94;;;18.70;30.34
5691;BME280;2870;42.680;23.364;2023-04-29T11:21:33;94951.34;;;18.50;31.70
5691;BME280;2870;42.680;23.364;2023-04-29T11:24:00;94958.81;;;19.04;30.63
5691;BME280;2870;42.680;23.364;2023-04-29T11:26:27;94958.72;;;18.09;31.35
5691;BME280;2870;42.680;23.364;2023-04-29T11:28:55;94962.44;;;18.58;32.37
5691;BME280;2870;42.680;23.364;2023-04-29T11:31:25;94951.34;;;18.15;30.51
5691;BME280;2870;42.680;23.364;2023-04-29T11:33:53;94955.59;;;17.81;32.35
5691;BME280;2870;42.680;23.364;2023-04-29T11:36:21;94952.91;;;17.62;32.63
5691;BME280;2870;42.680;23.364;2023-04-29T11:38:48;94948.25;;;17.33;33.09
5691;BME280;2870;42.680;23.364;2023-04-29T11:41:15;94946.34;;;17.47;31.55
5691;BME280;2870;42.680;23.364;2023-04-29T11:43:45;94951.13;;;17.78;30.85
5691;BME280;2870;42.680;23.364;2023-04-29T11:46:12;94952.88;;;17.83;31.79
5691;BME280;2870;42.680;23.364;2023-04-29T11:48:45;94943.94;;;18.69;31.88
5691;BME280;2870;42.680;23.364;2023-04-29T11:51:13;94947.97;;;18.66;32.03
5691;BME280;2870;42.680;23.364;2023-04-29T11:53:42;94952.66;;;17.58;31.97
5691;BME280;2870;42.680;23.364;2023-04-29T11:56:09;94944.78;;;18.48;31.67
5691;BME280;2870;42.680;23.364;2023-04-29T11:58:36;94948.34;;;18.25;32.64
5691;BME280;2870;42.680;23.364;2023-04-29T12:01:03;94935.88;;;18.07;33.27
5691;BME280;2870;42.680;23.364;2023-04-29T12:03:31;94949.25;;;17.38;33.76
5691;BME280;2870;42.680;23.364;2023-04-29T12:05:58;94942.69;;;17.35;34.82
5691;BME280;2870;42.680;23.364;2023-04-29T12:08:28;94945.84;;;17.18;34.62
5691;BME280;2870;42.680;23.364;2023-04-29T12:10:57;94939.63;;;17.31;35.04
5691;BME280;2870;42.680;23.364;2023-04-29T12:13:26;94941.44;;;17.60;34.69
5691;BME280;2870;42.680;23.364;2023-04-29T12:15:53;94938.25;;;17.32;34.59
5691;BME280;2870;42.680;23.364;2023-04-29T12:18:21;94941.31;;;17.25;34.57
5691;BME280;2870;42.680;23.364;2023-04-29T12:20:49;94929.84;;;17.22;34.55
5691;BME280;2870;42.680;23.364;2023-04-29T12:23:21;94932.88;;;17.36;34.00
5691;BME280;2870;42.680;23.364;2023-04-29T12:25:50;94926.81;;;17.30;33.63
5691;BME280;2870;42.680;23.364;2023-04-29T12:28:19;94923.06;;;17.61;34.18
5691;BME280;2870;42.680;23.364;2023-04-29T12:30:47;94918.84;;;17.50;34.78
5691;BME280;2870;42.680;23.364;2023-04-29T12:33:21;94914.19;;;17.55;34.84
5691;BME280;2870;42.680;23.364;2023-04-29T12:35:49;94916.88;;;17.53;35.44
5691;BME280;2870;42.680;23.364;2023-04-29T12:38:19;94912.22;;;17.69;35.36
5691;BME280;2870;42.680;23.364;2023-04-29T12:40:46;94909.31;;;17.79;35.74
5691;BME280;2870;42.680;23.364;2023-04-29T12:43:14;94922.78;;;17.45;35.68
5691;BME280;2870;42.680;23.364;2023-04-29T12:45:42;94913.19;;;17.62;35.97
5691;BME280;2870;42.680;23.364;2023-04-29T12:48:10;94917.44;;;17.06;35.18
5691;BME280;2870;42.680;23.364;2023-04-29T12:50:38;94913.19;;;17.62;35.89
5691;BME280;2870;42.680;23.364;2023-04-29T12:53:06;94909.34;;;18.14;37.49
5691;BME280;2870;42.680;23.364;2023-04-29T12:55:34;94909.97;;;18.00;35.17
5691;BME280;2870;42.680;23.364;2023-04-29T12:58:03;94910.09;;;18.26;36.17
5691;BME280;2870;42.680;23.364;2023-04-29T13:00:30;94911.06;;;18.31;35.66
5691;BME280;2870;42.680;23.364;2023-04-29T13:03:00;94903.88;;;18.65;37.32
5691;BME280;2870;42.680;23.364;2023-04-29T13:05:26;94913.13;;;18.77;35.35
5691;BME280;2870;42.680;23.364;2023-04-29T13:07:53;94900.72;;;18.12;35.39
5691;BME280;2870;42.680;23.364;2023-04-29T13:10:21;94909.34;;;18.25;36.84
5691;BME280;2870;42.680;23.364;2023-04-29T13:12:48;94909.09;;;17.98;36.63
5691;BME280;2870;42.680;23.364;2023-04-29T13:15:15;94906.25;;;17.98;37.04
5691;BME280;2870;42.680;23.364;2023-04-29T13:17:41;94914.78;;;18.33;36.81
5691;BME280;2870;42.680;23.364;2023-04-29T13:20:10;94917.88;;;18.72;37.05
5691;BME280;2870;42.680;23.364;2023-04-29T13:22:38;94905.91;;;18.27;37.08